Time;durP1;ratioP1;P1;durP2;ratioP2;P2;SDS_P1;SDS_P2;PMS_P1;PMS_P2;Temp;Humidity;BMP_temperature;BMP_pressure;BME280_temperature;BME280_humidity;BME280_pressure;Samples;Min_cycle;Max_cycle;Signal;HPM_P1;HPM_P2
2021/06/09 00:02:47;;;;;;;0.10;0.10;;;;;;;11.96;82.14;102373.88;10583579;28;20047;-92
2021/06/09 00:07:47;;;;;;;0.10;0.10;;;;;;;11.96;82.23;102381.88;10589447;27;20209;-93
2021/06/09 00:12:48;;;;;;;0.10;0.10;;;;;;;11.92;82.68;102380.44;10597157;28;20216;-91
2021/06/09 00:17:48;;;;;;;0.20;0.20;;;;;;;11.81;82.48;102376.00;10583202;28;20019;-92
2021/06/09 00:22:49;;;;;;;0.10;0.10;;;;;;;11.74;84.02;102370.31;10605626;28;20262;-93
2021/06/09 00:27:54;;;;;;;0.10;0.10;;;;;;;11.57;83.76;102362.84;10601414;27;20265;-91
2021/06/09 00:32:55;;;;;;;0.10;0.10;;;;;;;11.49;84.69;102371.53;10587765;28;20046;-93
2021/06/09 00:37:56;;;;;;;0.10;0.10;;;;;;;11.37;85.35;102375.19;10590557;27;20023;-93
2021/06/09 00:43:15;;;;;;;0.10;0.10;;;;;;;11.30;85.10;102382.00;10585707;28;20023;-92
2021/06/09 00:48:26;;;;;;;0.10;0.10;;;;;;;11.13;86.05;102354.03;10579975;28;20012;-93
2021/06/09 00:53:33;;;;;;;0.10;0.10;;;;;;;11.04;86.69;102350.31;10575711;28;20483;-94
2021/06/09 00:58:34;;;;;;;0.10;0.10;;;;;;;11.06;86.08;102367.03;10576069;28;20039;-93
2021/06/09 01:03:36;;;;;;;0.10;0.10;;;;;;;10.98;85.14;102364.16;10582653;28;20045;-92
2021/06/09 01:08:38;;;;;;;0.10;0.10;;;;;;;10.85;84.71;102350.13;10582139;28;20045;-92
2021/06/09 01:13:39;;;;;;;0.10;0.10;;;;;;;10.84;85.81;102364.41;10597839;28;20084;-92
2021/06/09 01:18:52;;;;;;;0.10;0.10;;;;;;;10.81;86.84;102362.00;10579090;28;20016;-92
2021/06/09 01:23:58;;;;;;;0.10;0.10;;;;;;;10.62;87.41;102351.97;10574603;28;20028;-93
2021/06/09 01:29:00;;;;;;;0.10;0.10;;;;;;;10.63;87.29;102364.31;10585897;28;20015;-93
2021/06/09 01:34:07;;;;;;;0.10;0.10;;;;;;;10.58;86.19;102364.66;10595870;28;20032;-93
2021/06/09 01:39:10;;;;;;;0.10;0.10;;;;;;;10.41;86.46;102352.69;10595788;22;20047;-93
2021/06/09 01:44:12;;;;;;;0.10;0.10;;;;;;;10.42;86.41;102359.72;10562347;28;20398;-93
2021/06/09 01:49:14;;;;;;;0.10;0.10;;;;;;;10.32;86.73;102347.22;10566876;28;20391;-93
2021/06/09 01:54:18;;;;;;;0.00;0.00;;;;;;;10.33;86.75;102352.44;10566483;28;20572;-93
2021/06/09 01:59:56;;;;;;;0.10;0.10;;;;;;;10.44;86.55;102367.56;10562923;28;20482;-94
2021/06/09 02:04:58;;;;;;;0.10;0.10;;;;;;;10.25;86.31;102344.19;10524676;28;20036;-93
2021/06/09 02:10:01;;;;;;;0.10;0.10;;;;;;;10.24;86.34;102345.16;10522543;28;20137;-92
2021/06/09 02:15:02;;;;;;;0.10;0.10;;;;;;;10.19;87.59;102350.81;10512288;28;20032;-93
2021/06/09 02:20:08;;;;;;;0.10;0.10;;;;;;;10.03;88.23;102336.16;10484340;28;20427;-92
2021/06/09 02:25:09;;;;;;;0.10;0.10;;;;;;;9.90;86.68;102326.47;10482800;28;20435;-93
2021/06/09 02:30:10;;;;;;;0.10;0.10;;;;;;;9.85;87.75;102338.41;10515167;28;20450;-92
2021/06/09 02:35:14;;;;;;;0.10;0.10;;;;;;;9.73;87.41;102334.88;10497865;28;20508;-93
2021/06/09 02:40:16;;;;;;;0.10;0.10;;;;;;;9.62;88.08;102341.00;10527394;28;20031;-90
2021/06/09 02:45:19;;;;;;;0.00;0.00;;;;;;;9.59;89.51;102335.09;10538275;28;20489;-92
2021/06/09 02:50:23;;;;;;;0.00;0.00;;;;;;;9.76;89.83;102358.59;10522700;28;20444;-92
2021/06/09 02:55:45;;;;;;;0.10;0.10;;;;;;;9.82;90.82;102363.44;10522786;28;20027;-93
2021/06/09 03:01:00;;;;;;;0.10;0.10;;;;;;;9.74;90.33;102342.75;10488618;28;20077;-93
2021/06/09 03:06:13;;;;;;;0.10;0.10;;;;;;;9.97;90.37;102361.44;10486609;28;20092;-93
2021/06/09 03:11:32;;;;;;;0.10;0.10;;;;;;;10.16;90.20;102340.41;10539237;28;20020;-94
2021/06/09 03:16:47;;;;;;;0.00;0.00;;;;;;;10.93;89.16;102325.50;10533295;28;20473;-94
2021/06/09 03:21:58;;;;;;;0.10;0.10;;;;;;;12.03;86.25;102359.00;10490512;28;20033;-93
2021/06/09 03:27:03;;;;;;;0.10;0.10;;;;;;;13.00;82.71;102345.19;10511151;28;20070;-92
2021/06/09 03:32:11;;;;;;;0.10;0.10;;;;;;;13.89;78.22;102335.22;10521624;28;20027;-93
2021/06/09 03:37:18;;;;;;;0.10;0.10;;;;;;;14.92;74.54;102345.00;10500143;28;20028;-94
2021/06/09 03:42:20;;;;;;;0.10;0.10;;;;;;;15.66;71.15;102345.69;10498850;28;20036;-94
2021/06/09 03:47:30;;;;;;;0.10;0.10;;;;;;;16.38;69.01;102337.47;10498788;28;20554;-93
2021/06/09 03:52:36;;;;;;;0.10;0.10;;;;;;;16.81;67.04;102324.84;10502267;28;20099;-93
2021/06/09 03:57:38;;;;;;;0.10;0.10;;;;;;;17.49;64.82;102316.56;10522036;28;20028;-93
2021/06/09 04:02:42;;;;;;;0.10;0.10;;;;;;;18.35;63.41;102311.53;10488737;28;20036;-93
2021/06/09 04:07:45;;;;;;;0.10;0.10;;;;;;;19.18;60.68;102311.78;10521936;28;20024;-93
2021/06/09 04:12:51;;;;;;;0.00;0.00;;;;;;;19.97;59.07;102313.31;10521573;28;20120;-92
2021/06/09 04:17:53;;;;;;;0.10;0.10;;;;;;;20.59;57.45;102318.34;10497701;28;20060;-92
2021/06/09 04:22:55;;;;;;;0.08;0.08;;;;;;;21.20;54.67;102310.69;10535746;28;20402;-92
2021/06/09 04:27:57;;;;;;;0.10;0.10;;;;;;;21.86;52.87;102310.44;10570623;28;20023;-92
2021/06/09 04:32:59;;;;;;;0.10;0.10;;;;;;;22.16;53.23;102315.63;10516497;28;20119;-92
2021/06/09 04:38:00;;;;;;;0.13;0.13;;;;;;;22.35;51.32;102303.25;10524834;28;20480;-92
2021/06/09 04:43:00;;;;;;;0.10;0.10;;;;;;;22.47;51.56;102317.06;10519625;28;20035;-92
2021/06/09 04:48:02;;;;;;;0.10;0.10;;;;;;;22.50;52.56;102312.06;10498800;28;20032;-93
2021/06/09 04:53:11;;;;;;;0.10;0.10;;;;;;;22.88;54.39;102313.47;10528104;28;20074;-92
2021/06/09 04:58:13;;;;;;;0.10;0.10;;;;;;;23.14;52.37;102316.25;10524970;28;20016;-93
2021/06/09 05:03:17;;;;;;;0.10;0.10;;;;;;;23.23;53.82;102311.47;10524850;28;20081;-91
2021/06/09 05:08:18;;;;;;;0.10;0.10;;;;;;;23.25;54.67;102309.38;10528060;28;20280;-93
2021/06/09 05:13:33;;;;;;;0.10;0.10;;;;;;;23.95;53.02;102317.97;10527147;28;20500;-93
2021/06/09 05:18:45;;;;;;;0.10;0.10;;;;;;;25.03;51.81;102320.06;10526481;28;20556;-93
2021/06/09 05:23:51;;;;;;;0.10;0.10;;;;;;;25.96;49.91;102311.16;10490147;28;20086;-92
2021/06/09 05:28:59;;;;;;;0.10;0.10;;;;;;;26.58;47.41;102313.81;10507787;28;20027;-94
2021/06/09 05:34:01;;;;;;;0.10;0.10;;;;;;;27.19;43.99;102312.75;10514337;28;20057;-91
2021/06/09 05:39:02;;;;;;;;;;;;;;;28.30;39.79;102314.78;10509953;28;20050;-90
2021/06/09 05:44:02;;;;;;;0.10;0.10;;;;;;;28.58;39.21;102298.41;10489892;28;20029;-90
2021/06/09 05:49:03;;;;;;;0.10;0.10;;;;;;;27.43;39.69;102312.78;10507661;28;20058;-91
2021/06/09 05:54:04;;;;;;;0.10;0.10;;;;;;;25.47;40.97;102291.84;10505009;28;20028;-90
2021/06/09 05:59:08;;;;;;;0.07;0.07;;;;;;;25.11;45.22;102314.34;10521066;28;20044;-92
2021/06/09 06:04:09;;;;;;;0.10;0.10;;;;;;;25.11;43.81;102318.97;10490677;28;20052;-92
2021/06/09 06:09:11;;;;;;;0.10;0.10;;;;;;;24.74;44.37;102308.69;10491341;28;20055;-91
2021/06/09 06:14:12;;;;;;;0.10;0.10;;;;;;;24.46;46.81;102316.38;10528264;28;20027;-92
2021/06/09 06:19:12;;;;;;;0.10;0.10;;;;;;;23.94;45.89;102289.91;10526165;28;20017;-91
2021/06/09 06:24:16;;;;;;;0.10;0.10;;;;;;;23.64;46.56;102294.09;10525095;28;20085;-91
2021/06/09 06:29:17;;;;;;;0.10;0.10;;;;;;;23.58;47.18;102298.50;10502965;28;20646;-92
2021/06/09 06:34:22;;;;;;;0.10;0.10;;;;;;;23.42;45.50;102298.94;10505093;28;20028;-92
2021/06/09 06:39:23;;;;;;;0.10;0.10;;;;;;;23.54;48.36;102329.06;10548561;28;20032;-93
2021/06/09 06:44:26;;;;;;;0.10;0.10;;;;;;;24.91;46.28;102291.84;10570734;28;20101;-92
2021/06/09 06:49:28;;;;;;;0.10;0.10;;;;;;;26.23;41.02;102280.81;10565848;28;20030;-93
2021/06/09 06:54:34;;;;;;;0.10;0.10;;;;;;;26.97;39.36;102287.00;10517961;28;20101;-92
2021/06/09 06:59:36;;;;;;;0.10;0.10;;;;;;;27.75;37.66;102305.91;10508607;28;20120;-93
2021/06/09 07:04:37;;;;;;;0.10;0.10;;;;;;;27.95;38.15;102300.09;10526720;28;20477;-93
2021/06/09 07:09:38;;;;;;;0.10;0.10;;;;;;;27.79;38.15;102303.56;10561099;28;20023;-93
2021/06/09 07:14:41;;;;;;;0.10;0.10;;;;;;;28.40;37.90;102291.19;10534694;28;20028;-92
2021/06/09 07:24:44;;;;;;;0.10;0.10;;;;;;;29.21;37.51;102299.31;10553986;28;20159;-65
2021/06/09 07:29:47;;;;;;;0.10;0.10;;;;;;;28.93;37.91;102291.09;10574391;28;20012;-65
2021/06/09 07:34:49;;;;;;;0.10;0.10;;;;;;;29.02;35.16;102293.22;10564161;28;20024;-65
2021/06/09 07:39:53;;;;;;;0.10;0.10;;;;;;;29.20;37.58;102292.13;10544609;22;20048;-61
2021/06/09 07:45:00;;;;;;;0.10;0.10;;;;;;;28.98;37.50;102289.28;10494868;28;20418;-63
2021/06/09 07:50:05;;;;;;;0.10;0.10;;;;;;;28.91;35.48;102282.28;10495687;28;20053;-62
2021/06/09 07:55:10;;;;;;;0.10;0.10;;;;;;;28.77;37.69;102290.84;10476188;28;20039;-62
2021/06/09 08:00:12;;;;;;;0.10;0.10;;;;;;;29.27;36.17;102290.06;10520426;28;20016;-62
2021/06/09 08:05:13;;;;;;;0.10;0.10;;;;;;;29.85;34.34;102287.13;10545751;28;20487;-63
2021/06/09 08:10:13;;;;;;;0.10;0.10;;;;;;;29.82;33.83;102288.47;10547009;28;20020;-63
2021/06/09 08:15:13;;;;;;;0.10;0.10;;;;;;;29.95;36.70;102287.25;10547066;28;20369;-63
2021/06/09 08:20:17;;;;;;;0.10;0.10;;;;;;;29.82;36.22;102279.38;10545641;28;20095;-63
2021/06/09 08:25:23;;;;;;;0.10;0.10;;;;;;;29.25;35.33;102283.19;10545244;28;20107;-63
2021/06/09 08:30:23;;;;;;;0.10;0.10;;;;;;;28.67;38.48;102290.63;10536977;28;20515;-62
2021/06/09 08:35:26;;;;;;;0.10;0.10;;;;;;;28.84;39.76;102285.19;10501287;28;20079;-63
2021/06/09 08:40:27;;;;;;;0.10;0.10;;;;;;;29.54;35.95;102292.13;10522370;28;20024;-62
2021/06/09 08:45:29;;;;;;;0.10;0.10;;;;;;;28.73;37.06;102284.16;10536192;28;20313;-62
2021/06/09 08:50:30;;;;;;;0.10;0.10;;;;;;;28.92;38.52;102286.69;10535622;28;20016;-62
2021/06/09 08:55:30;;;;;;;0.10;0.10;;;;;;;28.98;36.52;102281.06;10538726;28;20035;-63
2021/06/09 09:00:32;;;;;;;0.10;0.10;;;;;;;29.65;36.01;102285.75;10541336;28;20498;-60
2021/06/09 09:05:34;;;;;;;0.10;0.10;;;;;;;29.79;30.62;102275.25;10523741;28;20498;-62
2021/06/09 09:10:35;;;;;;;0.10;0.10;;;;;;;29.81;33.94;102277.72;10540535;28;20039;-63
2021/06/09 09:15:35;;;;;;;0.10;0.10;;;;;;;29.81;33.23;102280.47;10541567;28;20060;-62
2021/06/09 09:20:45;;;;;;;0.10;0.10;;;;;;;29.88;34.16;102281.13;10508074;28;20477;-62
2021/06/09 09:25:47;;;;;;;0.10;0.10;;;;;;;29.77;32.06;102280.97;10497331;28;20471;-63
2021/06/09 09:30:47;;;;;;;0.10;0.10;;;;;;;29.94;33.91;102278.19;10503124;28;20493;-62
2021/06/09 09:35:49;;;;;;;0.10;0.10;;;;;;;29.86;35.36;102277.81;10540647;28;20035;-62
2021/06/09 09:41:00;;;;;;;0.10;0.10;;;;;;;29.49;31.25;102279.16;10540148;28;20028;-63
2021/06/09 09:46:12;;;;;;;0.10;0.10;;;;;;;29.34;34.55;102276.19;10539844;28;20470;-62
2021/06/09 09:51:12;;;;;;;;;;;;;;;29.25;34.65;102275.78;10540372;28;20096;-61
2021/06/09 09:56:17;;;;;;;0.10;0.10;;;;;;;29.23;35.90;102279.84;10529557;28;20059;-60
2021/06/09 10:01:23;;;;;;;0.10;0.10;;;;;;;29.50;37.08;102278.09;10498373;28;20028;-62
2021/06/09 10:06:25;;;;;;;0.10;0.10;;;;;;;29.68;33.54;102274.25;10496962;28;20024;-63
2021/06/09 10:11:27;;;;;;;0.10;0.10;;;;;;;29.17;34.28;102278.91;10496976;28;20032;-63
2021/06/09 10:16:30;;;;;;;0.10;0.10;;;;;;;29.15;35.28;102277.50;10496842;28;20016;-62
2021/06/09 10:21:32;;;;;;;0.10;0.10;;;;;;;29.20;33.51;102267.44;10494880;28;20103;-62
2021/06/09 10:26:33;;;;;;;0.10;0.10;;;;;;;29.38;36.68;102268.28;10492625;28;20077;-62
2021/06/09 10:31:36;;;;;;;0.10;0.10;;;;;;;29.37;36.17;102266.63;10496518;28;20494;-63
2021/06/09 10:36:40;;;;;;;0.10;0.10;;;;;;;29.37;34.13;102261.13;10495577;28;20486;-63
2021/06/09 10:41:50;;;;;;;0.10;0.10;;;;;;;29.37;35.02;102258.38;10496035;28;20032;-63
2021/06/09 10:46:54;;;;;;;0.10;0.10;;;;;;;29.19;33.47;102257.56;10534624;28;20028;-62
2021/06/09 10:51:55;;;;;;;0.10;0.10;;;;;;;28.85;34.50;102246.53;10537518;28;20034;-62
2021/06/09 10:56:56;;;;;;;0.10;0.10;;;;;;;28.84;37.09;102246.78;10537313;28;20505;-63
2021/06/09 11:02:00;;;;;;;0.10;0.10;;;;;;;28.51;37.37;102244.81;10524112;28;20025;-62
2021/06/09 11:07:01;;;;;;;0.10;0.10;;;;;;;28.37;38.18;102244.25;10499951;28;20033;-60
2021/06/09 11:12:13;;;;;;;0.10;0.10;;;;;;;28.58;37.54;102229.88;10495065;28;20099;-62
2021/06/09 11:17:14;;;;;;;0.10;0.10;;;;;;;28.83;37.88;102235.00;10494159;28;20059;-62
2021/06/09 11:22:20;;;;;;;0.10;0.10;;;;;;;28.73;34.68;102231.25;10476415;28;20035;-62
2021/06/09 11:27:27;;;;;;;0.10;0.10;;;;;;;28.53;36.26;102223.47;10494407;28;20016;-62
2021/06/09 11:32:27;;;;;;;0.10;0.10;;;;;;;28.72;39.39;102229.59;10494921;28;20446;-62
2021/06/09 11:37:29;;;;;;;0.10;0.10;;;;;;;29.36;38.25;102218.31;10508771;28;20112;-62
2021/06/09 11:42:29;;;;;;;0.10;0.10;;;;;;;29.01;36.25;102216.66;10507548;28;20111;-62
2021/06/09 11:47:29;;;;;;;0.10;0.10;;;;;;;28.59;36.00;102219.75;10489264;28;20112;-62
2021/06/09 11:52:30;;;;;;;0.10;0.10;;;;;;;28.14;37.20;102224.06;10507146;28;20111;-62
2021/06/09 11:57:30;;;;;;;0.10;0.10;;;;;;;27.83;36.09;102219.03;10519151;28;20046;-61
2021/06/09 12:02:30;;;;;;;0.10;0.10;;;;;;;27.65;37.10;102230.94;10548689;28;20073;-62
2021/06/09 12:07:33;;;;;;;0.10;0.10;;;;;;;27.80;38.76;102217.63;10548625;28;20024;-61
2021/06/09 12:12:35;;;;;;;0.10;0.10;;;;;;;27.71;38.91;102214.38;10548891;28;20028;-62
2021/06/09 12:17:39;;;;;;;0.10;0.10;;;;;;;27.47;40.22;102208.09;10530434;28;20447;-62
2021/06/09 12:22:42;;;;;;;0.10;0.10;;;;;;;27.18;38.71;102206.34;10530097;28;20032;-62
2021/06/09 12:27:59;;;;;;;0.10;0.10;;;;;;;26.84;42.92;102215.03;10522860;28;20028;-62
2021/06/09 12:32:59;;;;;;;0.10;0.10;;;;;;;26.42;41.81;102211.44;10506006;28;20059;-62
2021/06/09 12:38:03;;;;;;;0.10;0.10;;;;;;;26.49;40.20;102203.97;10505923;28;20024;-63
2021/06/09 12:43:12;;;;;;;0.10;0.10;;;;;;;25.86;42.33;102207.97;10505807;28;20028;-62
2021/06/09 12:48:18;;;;;;;0.10;0.10;;;;;;;26.17;43.07;102208.84;10499446;28;20486;-62
2021/06/09 12:53:27;;;;;;;0.10;0.10;;;;;;;26.36;41.51;102206.91;10499135;28;20024;-62
2021/06/09 12:58:30;;;;;;;0.10;0.10;;;;;;;26.41;44.48;102207.03;10499426;28;20035;-62
2021/06/09 13:03:36;;;;;;;0.10;0.10;;;;;;;26.13;42.73;102208.47;10480796;28;20472;-62
2021/06/09 13:08:42;;;;;;;0.10;0.10;;;;;;;26.03;44.78;102201.88;10499195;28;20085;-62
2021/06/09 13:13:48;;;;;;;0.10;0.10;;;;;;;25.90;44.37;102205.59;10498583;28;20474;-61
2021/06/09 13:19:05;;;;;;;0.10;0.10;;;;;;;25.70;45.04;102201.16;10498094;28;20024;-62
2021/06/09 13:24:22;;;;;;;0.10;0.10;;;;;;;25.67;48.40;102198.91;10479834;28;20459;-61
2021/06/09 13:29:34;;;;;;;0.10;0.10;;;;;;;25.57;45.41;102192.28;10498140;28;20050;-62
2021/06/09 13:34:35;;;;;;;0.10;0.10;;;;;;;25.50;44.69;102189.63;10497386;28;20020;-62
2021/06/09 13:39:47;;;;;;;0.10;0.10;;;;;;;25.24;45.07;102194.28;10496452;22;20123;-64
2021/06/09 13:44:48;;;;;;;0.10;0.10;;;;;;;25.21;46.39;102197.47;10499246;28;20027;-64
2021/06/09 13:49:57;;;;;;;0.10;0.10;;;;;;;25.24;45.28;102197.00;10505274;28;20161;-64
2021/06/09 13:54:58;;;;;;;0.10;0.10;;;;;;;25.46;45.73;102199.34;10493077;28;20302;-64
2021/06/09 13:59:59;;;;;;;0.10;0.10;;;;;;;25.26;45.98;102186.72;10497596;28;20099;-64
2021/06/09 14:05:18;;;;;;;0.10;0.10;;;;;;;25.26;47.43;102188.63;10534494;28;20195;-64
2021/06/09 14:10:23;;;;;;;0.10;0.10;;;;;;;25.17;46.04;102190.81;10523371;28;20044;-64
2021/06/09 14:15:27;;;;;;;0.10;0.10;;;;;;;24.97;44.17;102188.22;10492683;28;20078;-65
2021/06/09 14:20:30;;;;;;;0.10;0.10;;;;;;;24.94;43.13;102185.09;10500263;28;20017;-64
2021/06/09 14:25:37;;;;;;;0.10;0.10;;;;;;;25.08;46.32;102178.50;10492539;28;20036;-64
2021/06/09 14:30:46;;;;;;;0.10;0.10;;;;;;;25.04;44.32;102177.25;10491056;28;20479;-65
2021/06/09 14:35:53;;;;;;;0.10;0.10;;;;;;;25.00;44.09;102167.84;10492087;28;20025;-65
2021/06/09 14:40:54;;;;;;;0.10;0.10;;;;;;;24.90;41.67;102165.66;10490962;28;20025;-64
2021/06/09 14:45:57;;;;;;;0.10;0.10;;;;;;;24.76;43.64;102164.91;10507318;28;20032;-64
2021/06/09 14:51:04;;;;;;;0.10;0.10;;;;;;;24.71;43.32;102162.00;10512378;28;20378;-64
2021/06/09 14:56:05;;;;;;;0.10;0.10;;;;;;;24.69;43.11;102152.38;10490729;28;20119;-64
2021/06/09 15:01:05;;;;;;;0.10;0.10;;;;;;;24.58;41.78;102146.59;10490484;28;20040;-64
2021/06/09 15:06:08;;;;;;;0.10;0.10;;;;;;;24.53;44.29;102156.50;10490977;28;20112;-66
2021/06/09 15:11:08;;;;;;;0.10;0.10;;;;;;;24.57;41.81;102153.09;10489588;28;20024;-64
2021/06/09 15:16:08;;;;;;;0.10;0.10;;;;;;;24.44;41.86;102149.63;10490442;28;20029;-63
2021/06/09 15:21:09;;;;;;;0.10;0.10;;;;;;;24.30;43.77;102149.69;10495976;28;20035;-63
2021/06/09 15:26:10;;;;;;;0.10;0.10;;;;;;;24.22;43.55;102146.38;10495527;28;20028;-63
2021/06/09 15:31:10;;;;;;;0.10;0.10;;;;;;;24.20;44.20;102148.47;10513150;28;20406;-64
2021/06/09 15:36:11;;;;;;;0.10;0.10;;;;;;;24.02;44.05;102152.75;10517258;28;20024;-64
2021/06/09 15:41:11;;;;;;;0.10;0.10;;;;;;;24.01;46.93;102147.53;10488239;28;20047;-64
2021/06/09 15:46:11;;;;;;;0.10;0.10;;;;;;;23.91;44.80;102154.28;10496626;28;20025;-64
2021/06/09 15:51:12;;;;;;;0.10;0.10;;;;;;;23.83;43.97;102140.91;10491520;28;20032;-63
2021/06/09 15:56:12;;;;;;;0.10;0.10;;;;;;;23.79;44.48;102147.00;10491409;28;20060;-64
2021/06/09 16:01:12;;;;;;;0.10;0.10;;;;;;;23.80;44.67;102152.22;10490470;28;20024;-64
2021/06/09 16:06:15;;;;;;;0.10;0.10;;;;;;;23.72;45.77;102157.91;10491215;28;20021;-64
2021/06/09 16:11:16;;;;;;;;;;;;;;;23.67;44.80;102146.78;10491132;28;20270;-64
2021/06/09 16:16:16;;;;;;;0.10;0.10;;;;;;;23.78;46.86;102146.16;10473330;28;19915;-64
2021/06/09 16:21:17;;;;;;;0.10;0.10;;;;;;;23.61;45.47;102140.31;10494568;28;20028;-64
2021/06/09 16:26:17;;;;;;;0.10;0.10;;;;;;;23.54;47.07;102147.69;10498945;28;20021;-64
2021/06/09 16:31:18;;;;;;;0.10;0.10;;;;;;;23.43;47.47;102138.28;10496554;28;20056;-64
2021/06/09 16:36:18;;;;;;;0.10;0.10;;;;;;;23.26;48.01;102134.34;10496868;28;20035;-65
2021/06/09 16:41:19;;;;;;;0.10;0.10;;;;;;;23.19;47.58;102136.25;10494613;28;20055;-64
2021/06/09 16:46:19;;;;;;;0.10;0.10;;;;;;;23.23;50.20;102142.94;10511336;28;20111;-64
2021/06/09 16:51:19;;;;;;;0.10;0.10;;;;;;;23.17;49.12;102147.31;10537396;28;20030;-64
2021/06/09 16:56:39;;;;;;;0.00;0.00;;;;;;;23.12;49.49;102136.25;10511592;28;20024;-64
2021/06/09 17:01:40;;;;;;;0.10;0.10;;;;;;;22.94;51.08;102133.31;10495602;28;20032;-65
2021/06/09 17:06:41;;;;;;;0.10;0.10;;;;;;;22.85;50.81;102134.56;10527863;28;20016;-65
2021/06/09 17:11:42;;;;;;;0.00;0.00;;;;;;;22.74;52.22;102130.59;10512490;28;20776;-64
2021/06/09 17:16:43;;;;;;;0.10;0.10;;;;;;;22.60;52.44;102130.59;10527598;28;20028;-64
2021/06/09 17:21:43;;;;;;;0.00;0.00;;;;;;;22.49;52.36;102131.22;10508432;28;20021;-64
2021/06/09 17:26:44;;;;;;;0.10;0.10;;;;;;;22.42;53.70;102133.06;10495055;28;20028;-64
2021/06/09 17:31:44;;;;;;;0.03;0.03;;;;;;;22.31;54.28;102131.81;10510045;28;20111;-64
2021/06/09 17:36:44;;;;;;;0.00;0.00;;;;;;;22.25;54.84;102134.50;10510029;28;20283;-64
2021/06/09 17:41:45;;;;;;;0.10;0.10;;;;;;;22.17;55.06;102140.97;10493543;28;20029;-64
2021/06/09 17:46:45;;;;;;;0.10;0.10;;;;;;;22.06;55.18;102141.50;10507537;28;20020;-64
2021/06/09 17:51:45;;;;;;;0.10;0.10;;;;;;;21.91;55.54;102136.25;10534282;28;20107;-65
2021/06/09 17:56:46;;;;;;;0.00;0.00;;;;;;;21.84;55.51;102135.38;10535700;28;20394;-64
2021/06/09 18:06:55;;;;;;;0.10;0.10;;;;;;;21.61;56.28;102130.25;10510393;28;20499;-64
2021/06/09 18:11:56;;;;;;;0.10;0.10;;;;;;;21.51;56.28;102129.78;10492464;28;20036;-64
2021/06/09 18:16:57;;;;;;;0.10;0.10;;;;;;;21.36;57.15;102129.88;10498338;28;20373;-64
2021/06/09 18:21:59;;;;;;;0.00;0.00;;;;;;;21.24;57.33;102133.13;10492274;28;20111;-64
2021/06/09 18:27:00;;;;;;;0.00;0.00;;;;;;;21.11;58.69;102127.63;10492354;28;20050;-64
2021/06/09 18:32:00;;;;;;;0.00;0.00;;;;;;;20.96;58.82;102130.44;10491710;28;20021;-64
2021/06/09 18:37:00;;;;;;;0.10;0.10;;;;;;;20.83;58.26;102126.75;10492780;28;20044;-64
2021/06/09 18:42:01;;;;;;;0.00;0.00;;;;;;;20.67;59.06;102128.72;10491634;28;20032;-64
2021/06/09 18:47:01;;;;;;;0.10;0.10;;;;;;;20.51;59.83;102137.09;10525146;28;20016;-64
2021/06/09 18:52:02;;;;;;;0.10;0.10;;;;;;;20.37;61.42;102135.28;10524940;28;20035;-64
2021/06/09 18:57:03;;;;;;;0.10;0.10;;;;;;;20.22;62.13;102138.03;10533048;28;20016;-64
2021/06/09 19:02:05;;;;;;;0.10;0.10;;;;;;;20.08;62.23;102145.16;10487782;28;20024;-64
2021/06/09 19:07:05;;;;;;;0.10;0.10;;;;;;;19.96;62.69;102143.97;10491135;28;20020;-64
2021/06/09 19:12:07;;;;;;;0.10;0.10;;;;;;;19.82;62.68;102143.78;10490556;28;20043;-64
2021/06/09 19:17:09;;;;;;;0.10;0.10;;;;;;;19.66;63.41;102141.28;10496411;28;20020;-64
2021/06/09 19:22:10;;;;;;;0.10;0.10;;;;;;;19.51;63.60;102152.06;10530676;28;20051;-64
2021/06/09 19:27:10;;;;;;;0.10;0.10;;;;;;;19.34;64.93;102159.50;10513690;28;20441;-66
2021/06/09 19:32:11;;;;;;;0.10;0.10;;;;;;;19.19;65.88;102155.94;10515466;28;20027;-66
2021/06/09 19:37:13;;;;;;;0.10;0.10;;;;;;;19.03;66.27;102162.34;10531355;28;20319;-63
2021/06/09 19:42:14;;;;;;;0.10;0.10;;;;;;;18.86;66.84;102163.53;10568621;22;20044;-60
2021/06/09 19:47:15;;;;;;;0.10;0.10;;;;;;;18.70;67.24;102165.31;10573689;28;20020;-61
2021/06/09 19:52:15;;;;;;;0.10;0.10;;;;;;;18.57;67.39;102167.75;10555316;28;20016;-60
2021/06/09 19:57:15;;;;;;;0.10;0.10;;;;;;;18.43;67.71;102163.13;10579791;28;20385;-61
2021/06/09 20:02:16;;;;;;;0.10;0.10;;;;;;;18.27;68.51;102164.06;10530517;28;20024;-61
2021/06/09 20:07:17;;;;;;;0.10;0.10;;;;;;;18.11;69.05;102170.38;10498490;28;20069;-61
2021/06/09 20:12:17;;;;;;;0.10;0.10;;;;;;;17.90;70.89;102170.16;10498083;28;20029;-61
2021/06/09 20:17:17;;;;;;;0.00;0.00;;;;;;;17.55;72.29;102170.41;10497275;28;20622;-60
2021/06/09 20:22:18;;;;;;;0.10;0.10;;;;;;;17.36;73.49;102162.69;10497953;28;20170;-61
2021/06/09 20:27:30;;;;;;;0.20;0.20;;;;;;;17.24;73.79;102174.84;10499636;28;20094;-60
2021/06/09 20:32:31;;;;;;;0.10;0.10;;;;;;;17.10;74.76;102165.59;10498181;28;20436;-60
2021/06/09 20:37:31;;;;;;;0.10;0.10;;;;;;;16.96;75.34;102173.34;10496435;28;20085;-59
2021/06/09 20:42:32;;;;;;;0.10;0.10;;;;;;;16.84;75.78;102168.44;10495287;28;20062;-60
2021/06/09 20:47:33;;;;;;;0.10;0.10;;;;;;;16.70;76.71;102180.72;10496170;28;20146;-61
2021/06/09 20:52:33;;;;;;;0.10;0.10;;;;;;;16.55;77.65;102179.66;10495654;28;20095;-60
2021/06/09 20:57:34;;;;;;;0.10;0.10;;;;;;;16.41;78.15;102191.91;10496278;28;20115;-60
2021/06/09 21:02:34;;;;;;;0.10;0.10;;;;;;;16.30;79.08;102199.28;10497695;28;20081;-59
2021/06/09 21:07:35;;;;;;;0.10;0.10;;;;;;;16.10;79.76;102205.09;10496972;28;20254;-60
2021/06/09 21:12:35;;;;;;;0.10;0.10;;;;;;;15.98;81.49;102208.06;10495910;28;20042;-58
2021/06/09 21:17:36;;;;;;;0.10;0.10;;;;;;;15.93;83.00;102213.06;10494921;28;20443;-59
2021/06/09 21:22:37;;;;;;;0.10;0.10;;;;;;;15.92;82.07;102207.88;10494758;28;20119;-60
2021/06/09 21:27:37;;;;;;;0.10;0.10;;;;;;;15.95;81.83;102212.91;10525850;28;20441;-58
2021/06/09 21:32:38;;;;;;;0.10;0.10;;;;;;;15.85;81.98;102210.31;10533418;28;20031;-61
2021/06/09 21:37:39;;;;;;;0.10;0.10;;;;;;;15.75;82.37;102215.00;10476610;28;20054;-60
2021/06/09 21:42:41;;;;;;;0.10;0.10;;;;;;;15.69;82.68;102213.78;10477685;28;20496;-60
2021/06/09 21:47:41;;;;;;;0.10;0.10;;;;;;;15.64;82.89;102216.06;10535102;28;20035;-60
2021/06/09 21:52:42;;;;;;;0.10;0.10;;;;;;;15.61;83.01;102227.97;10507228;28;20438;-59
2021/06/09 21:57:42;;;;;;;0.10;0.10;;;;;;;15.58;83.08;102205.97;10493501;28;20025;-59
2021/06/09 22:02:43;;;;;;;0.10;0.10;;;;;;;15.66;82.23;102210.56;10493560;28;20021;-60
2021/06/09 22:07:44;;;;;;;0.10;0.10;;;;;;;15.74;81.10;102214.16;10502874;28;20016;-58
2021/06/09 22:12:44;;;;;;;0.10;0.10;;;;;;;15.82;80.74;102216.91;10535149;28;20024;-58
2021/06/09 22:17:44;;;;;;;0.10;0.10;;;;;;;15.79;80.71;102202.91;10510506;28;20290;-59
2021/06/09 22:22:46;;;;;;;0.10;0.10;;;;;;;15.91;80.45;102214.22;10492296;28;20017;-60
2021/06/09 22:27:47;;;;;;;0.10;0.10;;;;;;;15.89;79.97;102218.94;10530655;28;20473;-59
2021/06/09 22:32:48;;;;;;;0.10;0.10;;;;;;;15.70;80.55;102217.31;10533997;28;20024;-58
2021/06/09 22:37:48;;;;;;;0.10;0.10;;;;;;;15.41;81.60;102210.38;10533459;28;20024;-57
2021/06/09 22:42:49;;;;;;;0.10;0.10;;;;;;;15.31;81.39;102202.44;10532056;28;20031;-59
2021/06/09 22:47:49;;;;;;;0.10;0.10;;;;;;;15.21;82.05;102209.72;10513406;28;20028;-58
2021/06/09 22:52:50;;;;;;;0.10;0.10;;;;;;;15.16;82.01;102212.88;10531286;28;20112;-60
2021/06/09 22:57:50;;;;;;;0.10;0.10;;;;;;;15.16;82.88;102206.69;10517673;28;20433;-59
2021/06/09 23:02:51;;;;;;;0.10;0.10;;;;;;;15.19;83.10;102210.91;10489216;28;20036;-59
2021/06/09 23:07:51;;;;;;;0.08;0.08;;;;;;;15.23;83.01;102212.25;10488993;28;20500;-59
2021/06/09 23:12:52;;;;;;;0.10;0.10;;;;;;;15.23;82.92;102215.78;10527835;28;20027;-59
2021/06/09 23:17:54;;;;;;;0.10;0.10;;;;;;;15.13;83.01;102213.19;10530380;28;20447;-58
2021/06/09 23:22:55;;;;;;;0.10;0.10;;;;;;;15.16;83.20;102220.09;10502834;28;20024;-56
2021/06/09 23:27:56;;;;;;;0.10;0.10;;;;;;;15.17;83.40;102217.25;10488717;28;20027;-57